Aérodrome :
LOGIN :

S'inscrire | Disclaimer

   EN    FR    IT 

 










Légende :    VFR   VFR Marginal   IFR   IFR Intensif   IFR Très Intensif
Visi : 
Plafond : 
>= 8 km
>= 3000ft
5 à 8 km
1000 à 3000 ft
1500m à 5 km
500 à 1000 ft
800 à 1500m
200 à 500 ft
< 800m
< 200 ft
Symboles :   Orages  Brouillard  Fortes neiges  Fortes précipitations  Vent > 20 kt
SIGMETs :   Divers  Orages  Givrage  Turbulence  Onde Orograph.  Cendres Volcan.







- Altitude de l'aérodrome : 162 ft
- Code IATA : BOD
- Voir les cartes d'approche


LFBD - Bordeaux / Merignac

DERNIER METAR :
  • 241000Z AUTO VRB01KT CAVOK 23/15 Q1019 NOSIG

METARs EXPIRÉS :
  • 240930Z AUTO VRB02KT CAVOK 22/15 Q1019 NOSIG
  • 240900Z AUTO VRB01KT CAVOK 21/16 Q1019 NOSIG
  • 240830Z AUTO VRB02KT CAVOK 19/16 Q1019 NOSIG
  • 240800Z AUTO VRB02KT CAVOK 17/15 Q1019 TEMPO 0500 BCFG
  • 240730Z AUTO 12002KT 3100 0900 R23/1600U R05/1600D R29/1200U BCFG VV/// 15/14 Q1019 BECMG CAVOK

TAF TAF LFBD
Valide du 24 à 06h jusqu'au 25 à 12h UTC


240500Z 2406/2512 21005KT CAVOK
PROB40
TEMPO 2406/2409 0500 BCFG
PROB30 2406/2408 0500 FG VV///
TEMPO 2503/2508 -RA
TEMPO 2508/2512 -TSRA BKN012CB TX28/2414Z TN13/2406Z
ATIS : +33 5 57 92 81 04
Pas de NOTAMs connus pour ce terrain.



MET'MAP, la Météo Aéronautique d'un coup d'oeil ! - Copyright ORBIFLY Décembre 2007 - Disclaimer

ORBIFLY MET'MAP TEAM :

Programmation & Développement : Alexandra Zaïnal
Conception & Développement : Baudouin d'Aumeries
Co-Programmation & Développement : Marc-Olivier Méhu
Soutien technique & logistique : Manuel Goepfert

Contact : metmap@orbifly.com




SOURCES & CREDITS :

   NOAA